Air Quality Table

TIMESTAMP NO2 SO2 O3 PM10 PM2.5 CO TEMP HUM WS WD NO
2022-01-21 05:00 2.19 µg/m3 1.3 µg/m3 103.58 µg/m3 8.17 µg/m3 N/A 0.19 mg/m3 11.81 °C 65.1 % 4.46 m/s 217.09 Deg 0.02 µg/m3
2022-01-21 04:00 2.08 µg/m3 2.23 µg/m3 111.24 µg/m3 7.85 µg/m3 N/A 0.17 mg/m3 11.75 °C 69.37 % 5.47 m/s 221.79 Deg 0.03 µg/m3
2022-01-21 03:00 1.59 µg/m3 11.43 µg/m3 109.26 µg/m3 7.06 µg/m3 N/A 0.18 mg/m3 11.66 °C 71.07 % 5.39 m/s 227.82 Deg 0.02 µg/m3
2022-01-21 02:00 1.36 µg/m3 6.09 µg/m3 105.97 µg/m3 7.5 µg/m3 N/A 0.16 mg/m3 11.67 °C 69.38 % 5.95 m/s 257.19 Deg 0.03 µg/m3
2022-01-21 01:00 1.2 µg/m3 3.13 µg/m3 105.89 µg/m3 6.18 µg/m3 N/A 0.16 mg/m3 11.77 °C 70.28 % 5.81 m/s 223.08 Deg 0.02 µg/m3
2022-01-21 00:00 0.99 µg/m3 3.89 µg/m3 102.97 µg/m3 5.29 µg/m3 N/A 0.16 mg/m3 11.95 °C 70.42 % 6.43 m/s 230.09 Deg 0.03 µg/m3
2022-01-20 23:00 1.28 µg/m3 2.44 µg/m3 98.65 µg/m3 6.31 µg/m3 N/A 0.16 mg/m3 12.22 °C 73.71 % 6.31 m/s 223.06 Deg 0.02 µg/m3
2022-01-20 22:00 1.01 µg/m3 1.64 µg/m3 98.7 µg/m3 6.01 µg/m3 N/A 0.16 mg/m3 12.26 °C 73.05 % 4.01 m/s 237.86 Deg 0.03 µg/m3
2022-01-20 21:00 1.08 µg/m3 1.5 µg/m3 100.32 µg/m3 5.81 µg/m3 N/A 0.16 mg/m3 12.19 °C 72.3 % 4.39 m/s 206.26 Deg 0.03 µg/m3
2022-01-20 20:00 1.02 µg/m3 1.34 µg/m3 99.33 µg/m3 4.81 µg/m3 N/A 0.16 mg/m3 12.09 °C 70.53 % 4.44 m/s 229.68 Deg 0.02 µg/m3
2022-01-20 19:00 1.05 µg/m3 1.56 µg/m3 99.41 µg/m3 4.31 µg/m3 N/A 0.16 mg/m3 12.18 °C 69.27 % 4.69 m/s 249.63 Deg 0.03 µg/m3
2022-01-20 18:00 0.86 µg/m3 0.82 µg/m3 98.38 µg/m3 3.24 µg/m3 N/A 0.16 mg/m3 12.31 °C 73.24 % 4.51 m/s 228.85 Deg 0.02 µg/m3
2022-01-20 17:00 0.73 µg/m3 0.52 µg/m3 92.27 µg/m3 3.64 µg/m3 N/A 0.15 mg/m3 12.65 °C 74.72 % 4.12 m/s 189.47 Deg 0.04 µg/m3
2022-01-20 16:00 0.83 µg/m3 0.63 µg/m3 91.09 µg/m3 5.38 µg/m3 N/A 0.15 mg/m3 12.71 °C 72.96 % 2.92 m/s 222.35 Deg 0.05 µg/m3
2022-01-20 15:00 0.97 µg/m3 0.69 µg/m3 92.92 µg/m3 5.86 µg/m3 N/A 0.15 mg/m3 12.85 °C 71.3 % 2.47 m/s 186.25 Deg 0.06 µg/m3
2022-01-20 14:00 0.98 µg/m3 0.62 µg/m3 92.65 µg/m3 3.9 µg/m3 N/A 0.15 mg/m3 13.04 °C 71.5 % 2.54 m/s 151.95 Deg 0.09 µg/m3
2022-01-20 13:00 0.96 µg/m3 0.57 µg/m3 90.69 µg/m3 3.1 µg/m3 N/A 0.15 mg/m3 12.92 °C 70.03 % 2.02 m/s 236.19 Deg 0.07 µg/m3
2022-01-20 12:00 0.86 µg/m3 0.57 µg/m3 90.14 µg/m3 3.31 µg/m3 N/A 0.15 mg/m3 12.7 °C 71.93 % 2.05 m/s 174.42 Deg 0.06 µg/m3
2022-01-20 11:00 0.89 µg/m3 0.5 µg/m3 87.38 µg/m3 4.34 µg/m3 N/A 0.15 mg/m3 12.69 °C 75.5 % 1.75 m/s 263.6 Deg 0.09 µg/m3
2022-01-20 10:00 0.89 µg/m3 0.47 µg/m3 87.76 µg/m3 3.36 µg/m3 N/A 0.15 mg/m3 12.89 °C 74.53 % 2.06 m/s 208.72 Deg 0.12 µg/m3
2022-01-20 09:00 0.51 µg/m3 0.43 µg/m3 88.28 µg/m3 2.97 µg/m3 N/A 0.15 mg/m3 12.49 °C 72.67 % 2.78 m/s 216.66 Deg 0.05 µg/m3
2022-01-20 08:00 0.63 µg/m3 0.44 µg/m3 89.84 µg/m3 3.56 µg/m3 N/A 0.15 mg/m3 11.98 °C 74.84 % 2.7 m/s 208.39 Deg 0.03 µg/m3
2022-01-20 07:00 2.09 µg/m3 0.52 µg/m3 93.03 µg/m3 3.56 µg/m3 N/A 0.15 mg/m3 11.98 °C 74.26 % 1.05 m/s 198.97 Deg 0.03 µg/m3

It is to be noted that the data is provisional and subject to quality assurance procedures. For validated data kindly refer your request to contact.air@era.org.mt